createdAt,value
2018-08-09T00:08:05.656Z,8
2018-08-09T00:18:04.958Z,9
2018-08-09T00:28:04.575Z,9
2018-08-09T00:38:04.405Z,10
2018-08-09T00:48:04.416Z,11
2018-08-09T00:58:04.317Z,13
2018-08-09T01:08:05.241Z,10
2018-08-09T01:18:06.741Z,11
2018-08-09T01:28:04.316Z,11
2018-08-09T01:38:04.462Z,13
2018-08-09T01:48:06.710Z,12
2018-08-09T01:58:04.390Z,12
2018-08-09T02:08:04.504Z,12
2018-08-09T02:18:04.499Z,12
2018-08-09T02:28:04.373Z,13
2018-08-09T02:38:04.498Z,14
2018-08-09T02:48:04.585Z,15
2018-08-09T02:58:04.496Z,14
2018-08-09T03:08:04.491Z,15
2018-08-09T03:28:51.273Z,14
2018-08-09T03:29:31.761Z,16
2018-08-09T03:39:31.931Z,17
2018-08-09T03:49:31.913Z,17
2018-08-09T03:59:32.348Z,17
2018-08-09T04:09:31.965Z,15
2018-08-09T04:19:32.629Z,17
2018-08-09T04:29:31.925Z,17
2018-08-09T04:39:31.965Z,15
2018-08-09T04:49:32.705Z,17
2018-08-09T04:59:31.989Z,17
2018-08-09T05:09:56.914Z,16
2018-08-09T05:19:32.236Z,17
2018-08-09T05:29:32.009Z,16
2018-08-09T05:39:32.026Z,18
2018-08-09T05:49:32.641Z,18
2018-08-09T05:59:32.300Z,18
2018-08-09T06:09:32.045Z,18
2018-08-09T06:19:32.076Z,17
2018-08-09T06:36:00.532Z,16
2018-08-09T06:39:32.046Z,19
2018-08-09T06:49:32.155Z,20
2018-08-09T06:59:32.112Z,18
2018-08-09T07:09:32.236Z,19
2018-08-09T07:19:32.049Z,18
2018-08-09T07:29:32.072Z,18
2018-08-09T07:39:32.108Z,18
2018-08-09T07:49:32.157Z,19
2018-08-09T07:59:32.243Z,13
2018-08-09T08:09:32.068Z,11
2018-08-09T08:19:32.207Z,10
2018-08-09T08:29:32.156Z,9
2018-08-09T08:39:32.195Z,8
2018-08-09T08:49:32.130Z,8
2018-08-09T08:59:32.116Z,9
2018-08-09T09:09:32.148Z,13
2018-08-09T09:19:32.105Z,14
2018-08-09T09:29:32.420Z,16
2018-08-09T09:39:32.496Z,17
2018-08-09T09:49:32.208Z,15
2018-08-09T09:59:32.175Z,15
2018-08-09T10:09:32.151Z,14
2018-08-09T10:19:32.948Z,15
2018-08-09T10:29:32.239Z,14
2018-08-09T10:39:32.108Z,14
2018-08-09T10:49:32.244Z,13
2018-08-09T10:59:32.191Z,9
2018-08-09T11:09:32.940Z,10
2018-08-09T11:19:32.931Z,9
2018-08-09T11:29:32.139Z,9
2018-08-09T11:39:32.267Z,9
2018-08-09T11:49:32.631Z,9
2018-08-09T11:59:32.169Z,10
2018-08-09T12:09:33.208Z,12
2018-08-09T12:19:32.871Z,11
2018-08-09T12:29:32.233Z,11
2018-08-09T12:39:32.251Z,13
2018-08-09T12:49:32.197Z,12
2018-08-09T12:59:36.259Z,13
2018-08-09T13:09:34.452Z,14
2018-08-09T13:19:32.794Z,14
2018-08-09T13:29:32.285Z,13
2018-08-09T13:39:32.439Z,13
2018-08-09T13:49:32.834Z,13
2018-08-09T13:59:34.400Z,13
2018-08-09T14:09:33.903Z,15
2018-08-09T14:19:33.574Z,19
2018-08-09T14:29:32.851Z,14
2018-08-09T14:39:45.845Z,15
2018-08-09T14:49:33.758Z,15
2018-08-09T14:59:33.034Z,11
2018-08-09T15:09:32.299Z,7
2018-08-09T15:19:34.940Z,5
2018-08-09T15:29:33.185Z,6
2018-08-09T15:39:32.774Z,4
2018-08-09T15:49:35.078Z,5
2018-08-09T15:59:32.203Z,4
2018-08-09T16:09:32.206Z,4
2018-08-09T16:19:32.259Z,4
2018-08-09T16:29:32.217Z,4
2018-08-09T16:39:32.213Z,4
2018-08-09T16:49:32.940Z,4
2018-08-09T16:59:32.188Z,4
2018-08-09T17:09:32.361Z,4
2018-08-09T17:19:33.080Z,4
2018-08-09T17:29:32.504Z,5
2018-08-09T17:39:34.133Z,3
2018-08-09T17:49:33.061Z,3
2018-08-09T17:59:32.410Z,3
2018-08-09T18:09:32.413Z,3
2018-08-09T18:19:32.304Z,3
2018-08-09T18:29:36.391Z,4
2018-08-09T18:39:32.384Z,4
2018-08-09T18:49:32.305Z,4
2018-08-09T18:59:34.787Z,4
2018-08-09T19:09:34.179Z,3
2018-08-09T19:21:15.611Z,5
2018-08-09T19:30:43.925Z,4
2018-08-09T19:39:32.292Z,5
2018-08-09T19:49:32.445Z,4
2018-08-09T19:59:32.518Z,3
2018-08-09T20:09:32.262Z,3
2018-08-09T20:19:32.285Z,4
2018-08-09T20:29:32.342Z,3
2018-08-09T20:39:32.311Z,3
2018-08-09T20:49:32.358Z,4
2018-08-09T20:59:32.268Z,5
2018-08-09T21:09:32.385Z,4
2018-08-09T21:19:32.256Z,3
2018-08-09T21:29:32.273Z,2
2018-08-09T21:39:32.744Z,3
2018-08-09T21:49:42.274Z,3
2018-08-09T21:59:35.108Z,3
2018-08-09T22:09:33.021Z,3
2018-08-09T22:19:35.152Z,2
2018-08-09T22:29:32.461Z,2
2018-08-09T22:39:34.467Z,2
2018-08-09T22:49:32.518Z,2
2018-08-09T22:59:32.354Z,2
2018-08-09T23:09:32.629Z,2
2018-08-09T23:19:32.369Z,2
2018-08-09T23:29:32.383Z,2
2018-08-09T23:39:32.331Z,3
2018-08-09T23:49:32.323Z,3
2018-08-09T23:59:32.246Z,4
